Burgos / Villafria, Spain

11:08 PM CET on December 08, 2016 (GMT +0100)
Calle Vitoria | | Change Station
Active Advisory: >

Elev 2834 ft 42.35 °N, 3.68 °W | Updated 3 minutes ago

Fog
Fog
38.3 °F
Feels Like 38 °F
N
0.0
Wind Variable Wind from North
Gusts 1.2 mph

Today
High -- | Low -- °F
--% Chance of Precip.
Yesterday
High -- | Low -- °F
Precip. -- in
Pressure 30.54 in
Visibility 6.2 miles
Clouds Mostly Cloudy 1400 ft
Windchill 38 °F
Dew Point 37 °F
Humidity 96%
Rainfall 0.00 in
Snow Depth Not available.
8:31 AM 5:41 PM
Waxing Gibbous, 67% visible
METAR LEVT 082200Z 22006KT 9999 BKN014 06/06 Q1034
Pressure 30.54 in
Visibility 6.2 miles
Clouds Mostly Cloudy 1400 ft
Windchill 38 °F
Dew Point 37 °F
Humidity 96%
Rainfall 0.00 in
Snow Depth Not available.
8:31 AM 5:41 PM
Waxing Gibbous, 67% visible
METAR LEVT 082200Z 22006KT 9999 BKN014 06/06 Q1034

10-Day Weather Forecast

×

Almanac

Astronomy

Dec. 08, 2016 Rise Set
Actual Time
Civil Twilight
Nautical Twilight
Astronomical Twilight
Moon
Length of Visible Light
Length of Day
Tomorrow will be .
, % of the Moon is Illuminated

Today's Extremes

Country Highs Country Lows

Community

WunderPhotos

Upload Photos

1,956,277 photos uploaded!

WunderBlog® & News

Nearby

Air Quality

  Air Quality AQ Index Pollutant
Not available.

Snow Depth

Station Depth Elevation

Earthquake Activity

City Distance Mag. Time & Date
Minimum magnitude displayed is 2.5.

Coastal Water Temperatures

Place Temperature

Stations

Nearby Weather Stations

Station Location Temp. Windchill Dew Point Humidity Wind Precip. Elev Updated Type